createdAt,value
2023-03-17T00:01:38.102Z,100520.06
2023-03-17T00:04:04.745Z,100539.84
2023-03-17T00:06:33.678Z,100538.41
2023-03-17T00:09:00.246Z,100542.28
2023-03-17T00:11:27.531Z,100535.13
2023-03-17T00:13:54.231Z,100558.47
2023-03-17T00:16:24.512Z,100553.53
2023-03-17T00:18:54.135Z,100539.88
2023-03-17T00:21:28.120Z,100554.19
2023-03-17T00:23:56.120Z,100560.56
2023-03-17T00:26:23.133Z,100561.63
2023-03-17T00:28:51.063Z,100558.53
2023-03-17T00:31:20.985Z,100559.91
2023-03-17T00:33:49.309Z,100554.94
2023-03-17T00:36:22.484Z,100555.78
2023-03-17T00:38:49.586Z,100560.06
2023-03-17T00:41:17.254Z,100553.19
2023-03-17T00:43:44.065Z,100555.09
2023-03-17T00:46:26.558Z,100561.22
2023-03-17T00:48:54.143Z,100563.28
2023-03-17T00:51:21.086Z,100556.75
2023-03-17T00:53:47.929Z,100549.63
2023-03-17T00:56:17.243Z,100547.19
2023-03-17T00:58:44.263Z,100541.31
2023-03-17T01:01:10.831Z,100535.75
2023-03-17T01:03:38.691Z,100524.97
2023-03-17T01:06:07.685Z,100512.56
2023-03-17T01:08:36.800Z,100507.00
2023-03-17T01:11:03.340Z,100507.31
2023-03-17T01:13:29.780Z,100506.38
2023-03-17T01:15:57.052Z,100502.28
2023-03-17T01:18:24.542Z,100508.38
2023-03-17T01:20:51.780Z,100499.06
2023-03-17T01:23:18.257Z,100495.41
2023-03-17T01:25:45.267Z,100492.66
2023-03-17T01:28:17.886Z,100491.34
2023-03-17T01:30:46.828Z,100498.91
2023-03-17T01:33:14.451Z,100492.72
2023-03-17T01:35:41.594Z,100484.19
2023-03-17T01:38:08.534Z,100479.38
2023-03-17T01:40:38.804Z,100490.06
2023-03-17T01:43:08.200Z,100476.25
2023-03-17T01:46:12.315Z,100460.75
2023-03-17T01:48:46.422Z,100464.19
2023-03-17T01:51:18.467Z,100464.75
2023-03-17T01:53:48.033Z,100458.88
2023-03-17T01:56:15.391Z,100445.03
2023-03-17T01:58:41.847Z,100444.41
2023-03-17T02:01:08.504Z,100446.09
2023-03-17T02:03:34.910Z,100438.41
2023-03-17T02:06:02.355Z,100440.44
2023-03-17T02:08:28.778Z,100443.03
2023-03-17T02:10:57.134Z,100446.09
2023-03-17T02:13:24.114Z,100439.78
2023-03-17T02:15:54.347Z,100440.75
2023-03-17T02:18:22.533Z,100434.03
2023-03-17T02:20:48.926Z,100445.47
2023-03-17T02:23:19.084Z,100444.09
2023-03-17T02:25:47.366Z,100435.88
2023-03-17T02:28:29.860Z,100435.69
2023-03-17T02:30:57.275Z,100433.38
2023-03-17T02:33:23.846Z,100438.72
2023-03-17T02:35:54.015Z,100441.03
2023-03-17T02:38:20.613Z,100436.91
2023-03-17T02:40:47.100Z,100440.31
2023-03-17T02:43:14.915Z,100435.06
2023-03-17T02:45:41.720Z,100428.66
2023-03-17T02:48:11.789Z,100424.84
2023-03-17T02:50:38.250Z,100430.50
2023-03-17T02:53:04.718Z,100433.78
2023-03-17T02:55:32.065Z,100443.78
2023-03-17T02:57:58.821Z,100437.78
2023-03-17T03:00:26.378Z,100435.94
2023-03-17T03:02:52.763Z,100439.56
2023-03-17T03:05:19.767Z,100435.81
2023-03-17T03:07:46.181Z,100433.63
2023-03-17T03:10:13.562Z,100429.06
2023-03-17T03:12:40.137Z,100437.38
2023-03-17T03:15:07.061Z,100440.44
2023-03-17T03:17:33.361Z,100428.53
2023-03-17T03:19:59.888Z,100435.13
2023-03-17T03:22:26.291Z,100439.50
2023-03-17T03:24:52.642Z,100435.06
2023-03-17T03:27:18.949Z,100429.63
2023-03-17T03:29:45.306Z,100426.13
2023-03-17T03:32:11.778Z,100432.31
2023-03-17T03:34:38.263Z,100432.97
2023-03-17T03:37:04.656Z,100431.53
2023-03-17T03:39:30.962Z,100424.81
2023-03-17T03:41:58.186Z,100431.19
2023-03-17T03:44:25.261Z,100431.25
2023-03-17T03:46:51.763Z,100438.31
2023-03-17T03:49:18.265Z,100427.19
2023-03-17T03:51:44.581Z,100426.22
2023-03-17T03:54:11.001Z,100423.00
2023-03-17T03:56:37.321Z,100420.31
2023-03-17T03:59:03.742Z,100422.63
2023-03-17T04:01:30.362Z,100418.63
2023-03-17T04:03:56.743Z,100415.69
2023-03-17T04:06:23.071Z,100410.72
2023-03-17T04:08:49.558Z,100424.22
2023-03-17T04:11:16.536Z,100433.16
2023-03-17T04:13:42.939Z,100432.41
2023-03-17T04:16:09.409Z,100411.97
2023-03-17T04:18:36.051Z,100418.53
2023-03-17T04:21:02.484Z,100413.84
2023-03-17T04:23:28.867Z,100426.56
2023-03-17T04:25:55.260Z,100410.78
2023-03-17T04:28:22.356Z,100412.94
2023-03-17T04:30:48.684Z,100414.56
2023-03-17T04:33:15.012Z,100418.16
2023-03-17T04:35:41.373Z,100422.47
2023-03-17T04:38:09.384Z,100423.59
2023-03-17T04:40:35.901Z,100417.59
2023-03-17T04:43:03.549Z,100414.06
2023-03-17T04:45:30.067Z,100410.56
2023-03-17T04:47:56.456Z,100420.47
2023-03-17T04:50:22.886Z,100413.44
2023-03-17T04:52:49.244Z,100419.06
2023-03-17T04:55:16.127Z,100425.31
2023-03-17T04:57:44.021Z,100417.25
2023-03-17T05:00:12.481Z,100432.72
2023-03-17T05:02:38.983Z,100428.09
2023-03-17T05:05:05.704Z,100431.31
2023-03-17T05:07:34.056Z,100426.13
2023-03-17T05:10:00.700Z,100417.59
2023-03-17T05:12:27.263Z,100413.22
2023-03-17T05:14:53.575Z,100416.22
2023-03-17T05:17:19.908Z,100418.72
2023-03-17T05:19:46.780Z,100416.81
2023-03-17T05:22:13.143Z,100413.56
2023-03-17T05:24:39.461Z,100423.16
2023-03-17T05:27:05.996Z,100423.09
2023-03-17T05:29:32.547Z,100429.09
2023-03-17T05:31:58.889Z,100420.09
2023-03-17T05:34:25.699Z,100417.88
2023-03-17T05:36:52.023Z,100405.91
2023-03-17T05:39:18.341Z,100420.09
2023-03-17T05:41:44.672Z,100417.97
2023-03-17T05:44:10.993Z,100414.72
2023-03-17T05:46:37.430Z,100425.66
2023-03-17T05:49:03.839Z,100425.47
2023-03-17T05:51:30.214Z,100433.19
2023-03-17T05:53:56.572Z,100420.47
2023-03-17T05:56:23.095Z,100427.06
2023-03-17T05:58:49.402Z,100420.44
2023-03-17T06:01:15.744Z,100421.47
2023-03-17T06:03:42.157Z,100420.72
2023-03-17T06:06:09.132Z,100417.94
2023-03-17T06:08:35.521Z,100414.72
2023-03-17T06:11:01.842Z,100397.22
2023-03-17T06:13:28.205Z,100399.00
2023-03-17T06:15:54.537Z,100396.47
2023-03-17T06:18:20.867Z,100401.78
2023-03-17T06:20:47.278Z,100403.56
2023-03-17T06:23:13.942Z,100397.13
2023-03-17T06:25:40.291Z,100398.94
2023-03-17T06:28:06.733Z,100406.22
2023-03-17T06:30:35.069Z,100412.78
2023-03-17T06:33:02.276Z,100397.47
2023-03-17T06:35:30.239Z,100399.72
2023-03-17T06:37:56.720Z,100401.25
2023-03-17T06:40:23.149Z,100402.34
2023-03-17T06:42:49.478Z,100400.59
2023-03-17T06:45:16.183Z,100406.75
2023-03-17T06:47:42.765Z,100409.97
2023-03-17T06:50:10.030Z,100399.78
2023-03-17T06:52:37.410Z,100415.22
2023-03-17T06:55:05.452Z,100410.56
2023-03-17T06:57:32.231Z,100415.13
2023-03-17T06:59:58.691Z,100414.28
2023-03-17T07:02:26.602Z,100412.66
2023-03-17T07:04:53.289Z,100410.06
2023-03-17T07:07:20.948Z,100406.53
2023-03-17T07:09:47.814Z,100409.25
2023-03-17T07:12:14.412Z,100414.34
2023-03-17T07:14:41.517Z,100409.19
2023-03-17T07:17:11.893Z,100413.84
2023-03-17T07:19:38.533Z,100410.38
2023-03-17T07:22:05.000Z,100419.09
2023-03-17T07:24:31.810Z,100414.75
2023-03-17T07:26:58.278Z,100417.38
2023-03-17T07:29:24.677Z,100407.31
2023-03-17T07:31:51.154Z,100408.81
2023-03-17T07:34:17.825Z,100409.81
2023-03-17T07:36:44.188Z,100414.44
2023-03-17T07:39:12.116Z,100411.16
2023-03-17T07:41:38.657Z,100411.03
2023-03-17T07:44:09.765Z,100422.13
2023-03-17T07:46:36.692Z,100416.41
2023-03-17T07:49:02.998Z,100408.13
2023-03-17T07:51:29.527Z,100421.28
2023-03-17T07:54:03.210Z,100416.00
2023-03-17T07:56:32.825Z,100413.31
2023-03-17T07:58:59.764Z,100412.44
2023-03-17T08:01:27.651Z,100407.41
2023-03-17T08:03:54.991Z,100409.59
2023-03-17T08:06:21.709Z,100400.03
2023-03-17T08:08:48.424Z,100403.34
2023-03-17T08:11:15.601Z,100390.25
2023-03-17T08:13:42.204Z,100388.53
2023-03-17T08:16:08.981Z,100389.88
2023-03-17T08:18:35.360Z,100405.72
2023-03-17T08:21:01.938Z,100400.53
2023-03-17T08:23:28.362Z,100409.03
2023-03-17T08:26:03.104Z,100413.41
2023-03-17T08:28:31.253Z,100402.72
2023-03-17T08:31:22.523Z,100410.41
2023-03-17T08:33:51.433Z,100408.56
2023-03-17T08:36:19.962Z,100409.72
2023-03-17T08:38:47.959Z,100404.84
2023-03-17T08:41:18.115Z,100414.22
2023-03-17T08:43:45.713Z,100413.56
2023-03-17T08:46:19.830Z,100412.16
2023-03-17T08:48:48.298Z,100419.00
2023-03-17T08:51:18.216Z,100415.75
2023-03-17T08:53:46.258Z,100410.31
2023-03-17T08:56:12.620Z,100406.63
2023-03-17T08:58:42.536Z,100410.47
2023-03-17T09:01:10.668Z,100407.69
2023-03-17T09:03:39.243Z,100409.72
2023-03-17T09:06:07.913Z,100417.88
2023-03-17T09:08:35.540Z,100418.44
2023-03-17T09:11:03.670Z,100409.06
2023-03-17T09:13:29.984Z,100406.94
2023-03-17T09:15:56.320Z,100405.53
2023-03-17T09:18:22.882Z,100405.25
2023-03-17T09:20:49.220Z,100397.97
2023-03-17T09:23:15.846Z,100405.09
2023-03-17T09:25:42.759Z,100406.03
2023-03-17T09:28:12.110Z,100411.09
2023-03-17T09:30:42.509Z,100411.38
2023-03-17T09:33:11.827Z,100409.59
2023-03-17T09:35:39.812Z,100401.97
2023-03-17T09:38:07.395Z,100412.22
2023-03-17T09:40:43.199Z,100415.31
2023-03-17T09:44:00.434Z,100408.41
2023-03-17T09:46:32.711Z,100412.66
2023-03-17T09:49:03.776Z,100402.50
2023-03-17T09:51:32.379Z,100405.56
2023-03-17T09:54:02.352Z,100398.56
2023-03-17T09:56:31.737Z,100402.44
2023-03-17T09:59:03.852Z,100392.91
2023-03-17T10:01:30.887Z,100398.63
2023-03-17T10:03:57.428Z,100394.53
2023-03-17T10:06:43.519Z,100387.84
2023-03-17T10:09:45.969Z,100396.56
2023-03-17T10:12:24.905Z,100401.44
2023-03-17T10:14:55.277Z,100396.41
2023-03-17T10:17:39.934Z,100393.78
2023-03-17T10:20:18.161Z,100391.53
2023-03-17T10:23:01.565Z,100384.97
2023-03-17T10:25:31.780Z,100387.44
2023-03-17T10:28:12.158Z,100388.22
2023-03-17T10:30:39.623Z,100387.81
2023-03-17T10:33:09.607Z,100390.25
2023-03-17T10:35:39.215Z,100390.41
2023-03-17T10:38:16.094Z,100388.44
2023-03-17T10:40:47.679Z,100385.56
2023-03-17T10:43:20.809Z,100394.91
2023-03-17T10:45:58.554Z,100400.03
2023-03-17T10:48:24.928Z,100395.38
2023-03-17T10:50:52.842Z,100386.78
2023-03-17T10:53:28.133Z,100373.78
2023-03-17T10:56:06.596Z,100384.50
2023-03-17T10:58:40.186Z,100377.97
2023-03-17T11:01:35.522Z,100364.78
2023-03-17T11:04:06.397Z,100363.91
2023-03-17T11:06:39.072Z,100362.41
2023-03-17T11:09:09.462Z,100356.66
2023-03-17T11:11:44.260Z,100363.41
2023-03-17T11:14:16.170Z,100366.09
2023-03-17T11:16:55.900Z,100369.06
2023-03-17T11:19:39.948Z,100368.53
2023-03-17T11:22:35.971Z,100368.91
2023-03-17T11:25:11.442Z,100364.69
2023-03-17T11:27:47.224Z,100362.78
2023-03-17T11:30:43.799Z,100358.78
2023-03-17T11:33:36.700Z,100355.28
2023-03-17T11:36:21.054Z,100349.53
2023-03-17T11:39:07.125Z,100341.13
2023-03-17T11:42:06.790Z,100343.00
2023-03-17T11:44:48.930Z,100342.91
2023-03-17T11:47:53.987Z,100333.44
2023-03-17T11:50:54.952Z,100345.13
2023-03-17T11:53:45.456Z,100338.50
2023-03-17T11:56:20.555Z,100337.31
2023-03-17T11:58:53.106Z,100339.34
2023-03-17T12:01:27.067Z,100330.53
2023-03-17T12:04:08.084Z,100330.88
2023-03-17T12:06:42.431Z,100329.19
2023-03-17T12:09:20.019Z,100323.13
2023-03-17T12:11:47.591Z,100329.03
2023-03-17T12:14:28.789Z,100330.19
2023-03-17T12:17:27.603Z,100332.56
2023-03-17T12:20:19.846Z,100331.91
2023-03-17T12:23:05.724Z,100320.56
2023-03-17T12:25:40.775Z,100324.28
2023-03-17T12:28:23.048Z,100314.44
2023-03-17T12:30:54.181Z,100314.94
2023-03-17T12:33:46.434Z,100315.31
2023-03-17T12:36:16.836Z,100314.28
2023-03-17T12:39:05.429Z,100307.50
2023-03-17T12:41:53.734Z,100302.91
2023-03-17T12:44:49.029Z,100304.63
2023-03-17T12:47:21.403Z,100305.13
2023-03-17T12:50:06.834Z,100304.75
2023-03-17T12:52:48.164Z,100295.09
2023-03-17T12:55:18.030Z,100287.84
2023-03-17T12:57:59.906Z,100288.88
2023-03-17T13:00:31.822Z,100289.03
2023-03-17T13:03:22.972Z,100283.94
2023-03-17T13:05:52.915Z,100281.06
2023-03-17T13:08:33.484Z,100278.03
2023-03-17T13:11:18.262Z,100279.53
2023-03-17T13:13:49.550Z,100275.75
2023-03-17T13:16:28.201Z,100268.94
2023-03-17T13:19:15.448Z,100268.78
2023-03-17T13:21:49.843Z,100275.41
2023-03-17T13:24:16.170Z,100263.72
2023-03-17T13:27:04.253Z,100255.09
2023-03-17T13:29:33.569Z,100265.47
2023-03-17T13:32:24.754Z,100257.69
2023-03-17T13:34:53.854Z,100258.19
2023-03-17T13:37:43.800Z,100260.75
2023-03-17T13:40:31.623Z,100268.84
2023-03-17T13:43:17.251Z,100267.00
2023-03-17T13:45:46.055Z,100256.31
2023-03-17T13:48:29.067Z,100252.25
2023-03-17T13:51:08.452Z,100251.75
2023-03-17T13:53:42.759Z,100248.19
2023-03-17T13:56:38.286Z,100251.94
2023-03-17T13:59:11.562Z,100244.16
2023-03-17T14:01:46.741Z,100246.53
2023-03-17T14:04:22.363Z,100239.72
2023-03-17T14:06:51.403Z,100237.03
2023-03-17T14:09:27.006Z,100240.28
2023-03-17T14:11:54.564Z,100238.03
2023-03-17T14:14:47.910Z,100233.25
2023-03-17T14:17:25.848Z,100237.16
2023-03-17T14:20:22.380Z,100236.63
2023-03-17T14:23:02.937Z,100244.28
2023-03-17T14:25:39.825Z,100238.69
2023-03-17T14:28:11.200Z,100235.00
2023-03-17T14:30:38.429Z,100236.63
2023-03-17T14:33:14.036Z,100242.84
2023-03-17T14:35:43.049Z,100246.94
2023-03-17T14:38:37.796Z,100237.97
2023-03-17T14:41:18.780Z,100235.25
2023-03-17T14:43:46.560Z,100240.69
2023-03-17T14:46:24.916Z,100229.03
2023-03-17T14:49:01.129Z,100232.78
2023-03-17T14:51:32.606Z,100219.44
2023-03-17T14:54:10.113Z,100223.63
2023-03-17T14:56:53.058Z,100229.22
2023-03-17T14:59:25.217Z,100229.03
2023-03-17T15:02:00.565Z,100219.84
2023-03-17T15:04:32.749Z,100205.59
2023-03-17T15:07:02.357Z,100217.66
2023-03-17T15:09:34.141Z,100216.25
2023-03-17T15:12:07.069Z,100226.94
2023-03-17T15:14:38.791Z,100221.25
2023-03-17T15:17:16.224Z,100218.72
2023-03-17T15:19:51.233Z,100219.75
2023-03-17T15:22:43.625Z,100210.81
2023-03-17T15:25:42.120Z,100215.19
2023-03-17T15:28:16.373Z,100213.31
2023-03-17T15:30:49.361Z,100222.66
2023-03-17T15:33:26.043Z,100223.84
2023-03-17T15:35:52.483Z,100227.22
2023-03-17T15:38:19.002Z,100233.66
2023-03-17T15:40:45.514Z,100236.03
2023-03-17T15:43:16.590Z,100230.94
2023-03-17T15:45:45.172Z,100225.16
2023-03-17T15:48:23.661Z,100217.22
2023-03-17T15:50:51.175Z,100221.13
2023-03-17T15:53:18.576Z,100224.31
2023-03-17T15:55:46.021Z,100223.66
2023-03-17T15:58:12.478Z,100221.44
2023-03-17T16:00:39.141Z,100223.97
2023-03-17T16:03:32.192Z,100223.44
2023-03-17T16:06:04.064Z,100208.03
2023-03-17T16:08:31.274Z,100216.63
2023-03-17T16:10:57.606Z,100222.00
2023-03-17T16:13:24.054Z,100234.84
2023-03-17T16:15:55.014Z,100232.25
2023-03-17T16:18:31.296Z,100238.59
2023-03-17T16:20:58.140Z,100245.84
2023-03-17T16:23:28.701Z,100244.97
2023-03-17T16:26:04.601Z,100232.81
2023-03-17T16:28:38.377Z,100242.72
2023-03-17T16:31:26.486Z,100241.06
2023-03-17T16:33:54.082Z,100236.59
2023-03-17T16:36:22.470Z,100238.56
2023-03-17T16:38:49.597Z,100244.59
2023-03-17T16:41:27.177Z,100237.66
2023-03-17T16:43:59.010Z,100241.69
2023-03-17T16:46:26.246Z,100237.78
2023-03-17T16:48:52.714Z,100236.00
2023-03-17T16:51:19.158Z,100231.25
2023-03-17T16:53:45.685Z,100236.81
2023-03-17T16:56:18.685Z,100232.66
2023-03-17T16:58:46.643Z,100262.53
2023-03-17T17:01:19.731Z,100253.34
2023-03-17T17:03:46.878Z,100239.44
2023-03-17T17:06:16.881Z,100242.91
2023-03-17T17:08:46.972Z,100239.44
2023-03-17T17:11:14.680Z,100237.41
2023-03-17T17:13:42.872Z,100244.69
2023-03-17T17:16:27.924Z,100258.38
2023-03-17T17:18:54.658Z,100266.41
2023-03-17T17:21:21.217Z,100250.22
2023-03-17T17:23:47.601Z,100258.13
2023-03-17T17:26:13.971Z,100254.22
2023-03-17T17:28:40.525Z,100270.22
2023-03-17T17:31:08.423Z,100269.84
2023-03-17T17:33:36.480Z,100280.63
2023-03-17T17:36:12.006Z,100276.28
2023-03-17T17:38:38.311Z,100276.13
2023-03-17T17:41:08.851Z,100286.38
2023-03-17T17:43:35.290Z,100289.66
2023-03-17T17:46:01.783Z,100296.06
2023-03-17T17:48:28.242Z,100298.66
2023-03-17T17:50:55.975Z,100308.03
2023-03-17T17:53:22.326Z,100309.63
2023-03-17T17:55:49.849Z,100297.16
2023-03-17T17:58:18.899Z,100298.03
2023-03-17T18:00:45.712Z,100296.31
2023-03-17T18:03:12.517Z,100295.03
2023-03-17T18:05:38.943Z,100290.06
2023-03-17T18:08:05.962Z,100297.47
2023-03-17T18:10:33.573Z,100301.28
2023-03-17T18:13:00.272Z,100301.41
2023-03-17T18:15:27.359Z,100278.63
2023-03-17T18:17:54.606Z,100274.66
2023-03-17T18:20:22.515Z,100282.91
2023-03-17T18:22:49.633Z,100284.16
2023-03-17T18:25:16.912Z,100281.03
2023-03-17T18:27:43.846Z,100305.44
2023-03-17T18:30:13.657Z,100307.97
2023-03-17T18:32:42.736Z,100315.38
2023-03-17T18:35:15.718Z,100334.09
2023-03-17T18:37:42.260Z,100335.22
2023-03-17T18:40:15.173Z,100343.00
2023-03-17T18:42:42.923Z,100330.28
2023-03-17T18:45:11.454Z,100328.56
2023-03-17T18:47:38.886Z,100315.66
2023-03-17T18:50:06.964Z,100313.09
2023-03-17T18:52:34.805Z,100312.28
2023-03-17T18:55:01.316Z,100313.69
2023-03-17T18:57:28.051Z,100313.13
2023-03-17T18:59:55.492Z,100307.00
2023-03-17T19:02:22.366Z,100314.13
2023-03-17T19:04:48.899Z,100322.75
2023-03-17T19:07:16.306Z,100319.34
2023-03-17T19:09:43.000Z,100325.19
2023-03-17T19:12:09.801Z,100315.25
2023-03-17T19:14:38.424Z,100315.97
2023-03-17T19:17:05.381Z,100331.13
2023-03-17T19:19:33.143Z,100324.19
2023-03-17T19:22:00.110Z,100332.09
2023-03-17T19:24:27.178Z,100318.19
2023-03-17T19:26:53.621Z,100323.03
2023-03-17T19:29:20.091Z,100315.91
2023-03-17T19:31:48.501Z,100325.13
2023-03-17T19:34:15.333Z,100323.25
2023-03-17T19:36:45.913Z,100334.72
2023-03-17T19:39:13.188Z,100327.66
2023-03-17T19:41:40.056Z,100338.47
2023-03-17T19:44:07.223Z,100327.31
2023-03-17T19:46:37.306Z,100319.53
2023-03-17T19:49:04.952Z,100314.00
2023-03-17T19:51:32.922Z,100317.88
2023-03-17T19:53:59.746Z,100311.66
2023-03-17T19:56:27.676Z,100316.06
2023-03-17T19:58:54.751Z,100314.06
2023-03-17T20:01:21.937Z,100308.63
2023-03-17T20:03:48.696Z,100320.50
2023-03-17T20:06:15.569Z,100316.84
2023-03-17T20:08:43.184Z,100323.06
2023-03-17T20:11:11.452Z,100317.97
2023-03-17T20:13:38.662Z,100319.94
2023-03-17T20:16:06.181Z,100321.50
2023-03-17T20:18:32.749Z,100331.53
2023-03-17T20:21:00.124Z,100328.16
2023-03-17T20:23:27.296Z,100334.78
2023-03-17T20:25:53.802Z,100340.44
2023-03-17T20:28:25.000Z,100340.44
2023-03-17T20:30:51.476Z,100328.56
2023-03-17T20:33:17.856Z,100330.25
2023-03-17T20:35:46.839Z,100330.81
2023-03-17T20:38:14.530Z,100342.28
2023-03-17T20:40:41.701Z,100342.84
2023-03-17T20:43:08.215Z,100344.56
2023-03-17T20:45:34.538Z,100349.84
2023-03-17T20:48:01.894Z,100352.41
2023-03-17T20:50:30.886Z,100349.00
2023-03-17T20:52:57.470Z,100355.97
2023-03-17T20:55:23.857Z,100358.41
2023-03-17T20:57:51.322Z,100354.69
2023-03-17T21:00:20.032Z,100363.91
2023-03-17T21:02:50.370Z,100354.16
2023-03-17T21:05:23.129Z,100342.81
2023-03-17T21:07:50.501Z,100341.28
2023-03-17T21:10:18.379Z,100355.31
2023-03-17T21:12:45.593Z,100358.53
2023-03-17T21:15:13.809Z,100363.91
2023-03-17T21:17:42.029Z,100374.41
2023-03-17T21:20:11.331Z,100364.50
2023-03-17T21:22:37.944Z,100367.72
2023-03-17T21:25:05.070Z,100356.06
2023-03-17T21:27:31.519Z,100375.25
2023-03-17T21:29:57.933Z,100361.88
2023-03-17T21:32:24.583Z,100366.69
2023-03-17T21:34:51.254Z,100368.06
2023-03-17T21:37:18.403Z,100367.75
2023-03-17T21:39:45.691Z,100365.06
2023-03-17T21:42:12.233Z,100367.06
2023-03-17T21:44:39.121Z,100355.97
2023-03-17T21:47:05.611Z,100350.00
2023-03-17T21:49:32.003Z,100359.06
2023-03-17T21:51:58.507Z,100355.66
2023-03-17T21:54:25.490Z,100352.66
2023-03-17T21:56:52.544Z,100360.31
2023-03-17T21:59:20.842Z,100363.59
2023-03-17T22:01:47.707Z,100360.91
2023-03-17T22:04:14.181Z,100364.13
2023-03-17T22:06:40.521Z,100352.41
2023-03-17T22:09:06.963Z,100357.63
2023-03-17T22:11:33.278Z,100361.16
2023-03-17T22:13:59.676Z,100356.31
2023-03-17T22:16:26.130Z,100364.78
2023-03-17T22:18:52.706Z,100361.97
2023-03-17T22:21:20.389Z,100365.13
2023-03-17T22:23:47.692Z,100363.00
2023-03-17T22:26:16.546Z,100360.84
2023-03-17T22:28:44.575Z,100365.97
2023-03-17T22:31:21.707Z,100361.69
2023-03-17T22:33:52.192Z,100370.50
2023-03-17T22:36:19.206Z,100372.28
2023-03-17T22:38:46.700Z,100374.13
2023-03-17T22:41:16.422Z,100373.91
2023-03-17T22:43:43.253Z,100378.84
2023-03-17T22:46:10.940Z,100382.13
2023-03-17T22:48:37.822Z,100384.38
2023-03-17T22:51:07.034Z,100385.94
2023-03-17T22:53:33.549Z,100390.19
2023-03-17T22:56:00.270Z,100396.28
2023-03-17T22:58:26.963Z,100391.50
2023-03-17T23:00:54.285Z,100394.44
2023-03-17T23:03:20.999Z,100388.63
2023-03-17T23:05:49.675Z,100397.06
2023-03-17T23:08:17.706Z,100396.47
2023-03-17T23:10:44.854Z,100388.84
2023-03-17T23:13:11.537Z,100400.38
2023-03-17T23:15:38.137Z,100401.59
2023-03-17T23:18:05.099Z,100393.19
2023-03-17T23:20:32.026Z,100397.28
2023-03-17T23:22:58.966Z,100392.75
2023-03-17T23:25:25.437Z,100405.44
2023-03-17T23:27:52.320Z,100408.47
2023-03-17T23:30:18.793Z,100405.59
2023-03-17T23:32:45.417Z,100412.31
2023-03-17T23:35:13.415Z,100403.91
2023-03-17T23:37:40.972Z,100414.41
2023-03-17T23:40:09.384Z,100414.53
2023-03-17T23:42:36.260Z,100414.81
2023-03-17T23:45:03.870Z,100413.69
2023-03-17T23:47:30.455Z,100414.53
2023-03-17T23:49:57.004Z,100418.25
2023-03-17T23:52:23.343Z,100412.25
2023-03-17T23:54:49.891Z,100407.41
2023-03-17T23:57:17.061Z,100410.31
2023-03-17T23:59:43.387Z,100403.00
